Tijucas Do Sul, Brazil
Current Conditions -  °F | °C
As of 11:00 AM on Wednesday 26 Nov 2014 (Local Time) from SBCT Reporting Station
Broken Clouds Broken Clouds  
Wind Chill: 24°   Ceiling: 1300
Heat Index: 24°   Visibility: 6mi
Dew Point: 18°   Wind: 14mph
Humidity: 69%   Direction: 290°WNW
Pressure: 29.91"   Gusts: NA
Location:  25.93°S, 49.18°W
Report Text: SBCT 261300Z 29012KT 9999 BKN013 BKN020 24/18 Q1013
Loading
Personal Weather Stations






























Interactive Weather Map New forecast layout! Learn more

10-Day Weather Forecast

Advertisements
Track Severe Weather on mobile